»·PEaware :: N756DR KASE-KAPA

N756DR :: KASE-KAPA

FLIGHT INFORMATION

Flight Status: Arrived
Operator: Privately registered:
United States
More flights under this callsign
Pilot: Anonymous 16551 (16551)
Aircraft: BEECH AIRCRAFT BARON
(BE58)
More flights by this aircraft type
Origin: KASE Aspen-Pitkin Co/Sardy
United States
Destination: KAPA Centennial
United States
More flights between these airports :: More routes between these airports
Route: +LINDZ8 DBL V108 MURFE V160 LARKS LARKS8
File this flight plan on PilotEdge
Remarks:
Altitude:
(Current/Filed)
17,000ft
Speed:
(Current/Filed)
160kts
Departed: 12-Dec-17 12:36 PM
Arrived: 12-Dec-17 01:29 PM
Distance/Time
Traveled:
96nm/0:53
Distance/Time
To Go:
Arrived

Flight Plot

Page will automatically refresh every two minutes.

Flight plan parsing failed; only flown route is shown


Map Options




Map Legend


Flown Route
Filed Route
Departure Airport
Arrival Airport
Navaid (VOR, NDB)
Fix

Horizontal Profiles

Position Reports

Time Latitude Longitude Heading Altitude Ground
Speed
12-Dec-17 12:13 39.224148 -106.867227 251 7774ft 0kts
12-Dec-17 12:14 39.224148 -106.867227 251 7774ft 0kts
12-Dec-17 12:15 39.224148 -106.867227 251 7774ft 0kts
12-Dec-17 12:16 39.224148 -106.867227 251 7774ft 0kts
12-Dec-17 12:17 39.224148 -106.867227 251 7774ft 0kts
12-Dec-17 12:18 39.224148 -106.867227 251 7774ft 0kts
12-Dec-17 12:18 39.224148 -106.867227 251 7774ft 0kts
12-Dec-17 12:20 39.224148 -106.867227 251 7774ft 0kts
12-Dec-17 12:20 39.224148 -106.867227 251 7774ft 0kts
12-Dec-17 12:22 39.224148 -106.867227 251 7774ft 0kts
12-Dec-17 12:22 39.224148 -106.867227 251 7774ft 0kts
12-Dec-17 12:24 39.224148 -106.867227 251 7774ft 0kts
12-Dec-17 12:24 39.224148 -106.867227 251 7774ft 0kts
12-Dec-17 12:25 39.224148 -106.867227 251 7774ft 0kts
12-Dec-17 12:26 39.224148 -106.867227 251 7774ft 0kts
12-Dec-17 12:27 39.224148 -106.867227 251 7774ft 0kts
12-Dec-17 12:28 39.224148 -106.867227 251 7774ft 0kts
12-Dec-17 12:29 39.224148 -106.867227 251 7774ft 0kts
12-Dec-17 12:30 39.224148 -106.867227 251 7774ft 0kts
12-Dec-17 12:31 39.224148 -106.867227 251 7774ft 0kts
12-Dec-17 12:32 39.224148 -106.867227 251 7774ft 0kts
12-Dec-17 12:33 39.224148 -106.867227 251 7774ft 0kts
12-Dec-17 12:34 39.224030 -106.867564 235 7774ft 6kts
12-Dec-17 12:35 39.220776 -106.866527 160 7774ft 14kts
12-Dec-17 12:36 39.216906 -106.864739 159 7774ft 12kts
12-Dec-17 12:37 39.215053 -106.863964 189 7774ft 0kts
12-Dec-17 12:38 39.215053 -106.863964 189 7774ft 0kts
12-Dec-17 12:39 39.215053 -106.863964 189 7774ft 0kts
12-Dec-17 12:40 39.214744 -106.864296 251 7774ft 10kts
12-Dec-17 12:41 39.228868 -106.871315 340 7869ft 108kts
12-Dec-17 12:42 39.260484 -106.876807 348 8969ft 119kts
12-Dec-17 12:43 39.276546 -106.908856 283 10012ft 127kts
12-Dec-17 12:44 39.284400 -106.953459 284 11048ft 128kts
12-Dec-17 12:45 39.292891 -106.998156 284 11971ft 129kts
12-Dec-17 12:46 39.307098 -107.039925 311 12741ft 132kts
12-Dec-17 12:47 39.331691 -107.075543 312 13479ft 132kts
12-Dec-17 12:48 39.355379 -107.111813 310 14157ft 133kts
12-Dec-17 12:49 39.381185 -107.145411 343 14666ft 138kts
12-Dec-17 12:50 39.401042 -107.105822 73 15190ft 151kts
12-Dec-17 12:51 39.408858 -107.052767 75 15767ft 148kts
12-Dec-17 12:52 39.418308 -107.000580 69 16267ft 150kts
12-Dec-17 12:53 39.429116 -106.948210 74 16741ft 153kts
12-Dec-17 12:54 39.435051 -106.892627 92 17025ft 168kts
12-Dec-17 12:55 39.426650 -106.831127 108 17083ft 182kts
12-Dec-17 12:56 39.412780 -106.767528 103 17026ft 184kts
12-Dec-17 12:57 39.400594 -106.703330 103 16982ft 184kts
12-Dec-17 12:58 39.388228 -106.639534 103 16963ft 182kts
12-Dec-17 12:59 39.374320 -106.577289 105 17015ft 179kts
12-Dec-17 13:00 39.361007 -106.515260 104 17045ft 179kts
12-Dec-17 13:01 39.347303 -106.453362 105 17061ft 179kts
12-Dec-17 13:02 39.333591 -106.391456 105 17084ft 179kts
12-Dec-17 13:03 39.320059 -106.329499 104 17100ft 179kts
12-Dec-17 13:04 39.307314 -106.267530 104 17091ft 180kts
12-Dec-17 13:06 39.294993 -106.204880 101 17084ft 180kts
12-Dec-17 13:07 39.283583 -106.142196 103 17091ft 179kts
12-Dec-17 13:08 39.271457 -106.079617 104 17088ft 180kts
12-Dec-17 13:09 39.258179 -106.017266 106 17088ft 180kts
12-Dec-17 13:10 39.244438 -105.954881 104 17041ft 182kts
12-Dec-17 13:11 39.231100 -105.891954 104 17026ft 181kts
12-Dec-17 13:12 39.218332 -105.828794 104 16979ft 182kts
12-Dec-17 13:13 39.204261 -105.766022 107 16942ft 182kts
12-Dec-17 13:14 39.189255 -105.703700 105 16914ft 182kts
12-Dec-17 13:15 39.173567 -105.641660 109 16881ft 182kts
12-Dec-17 13:16 39.155928 -105.580452 111 16855ft 182kts
12-Dec-17 13:17 39.139939 -105.518532 106 16840ft 181kts
12-Dec-17 13:18 39.150636 -105.458853 45 16678ft 181kts
12-Dec-17 13:19 39.183661 -105.408629 42 16411ft 184kts
12-Dec-17 13:20 39.219343 -105.360712 41 16033ft 185kts
12-Dec-17 13:21 39.256485 -105.314206 40 15602ft 188kts
12-Dec-17 13:22 39.293448 -105.266285 44 15137ft 190kts
12-Dec-17 13:23 39.327548 -105.215074 46 14959ft 187kts
12-Dec-17 13:24 39.358672 -105.162989 50 14980ft 180kts
12-Dec-17 13:25 39.386746 -105.112521 52 14853ft 186kts
12-Dec-17 13:26 39.417117 -105.055849 50 14390ft 195kts
12-Dec-17 13:27 39.456723 -105.012817 8 13627ft 186kts
12-Dec-17 13:28 39.506825 -105.002332 10 12704ft 183kts
12-Dec-17 13:29 39.546941 -104.961026 43 11169ft 187kts
12-Dec-17 13:30 39.582626 -104.917349 16 9504ft 168kts
12-Dec-17 13:31 39.624002 -104.900662 0 8042ft 143kts
12-Dec-17 13:32 39.641082 -104.869444 125 6951ft 155kts
12-Dec-17 13:33 39.607524 -104.855171 178 6238ft 117kts
12-Dec-17 13:34 39.576522 -104.853590 177 5824ft 99kts
12-Dec-17 13:35 39.569525 -104.852352 52 5823ft 4kts
12-Dec-17 13:36 39.571208 -104.852295 357 5823ft 12kts
12-Dec-17 13:37 39.573843 -104.852414 357 5823ft 8kts
12-Dec-17 13:38 39.573820 -104.848598 117 5823ft 15kts
12-Dec-17 13:39 39.572243 -104.843461 108 5823ft 15kts
12-Dec-17 13:40 39.570757 -104.838482 110 5823ft 14kts
12-Dec-17 13:41 39.572621 -104.837717 357 5824ft 7kts
12-Dec-17 13:42 39.572935 -104.838149 269 5823ft 0kts
12-Dec-17 13:43 39.572935 -104.838149 269 5823ft 0kts
12-Dec-17 13:44 39.572935 -104.838149 269 5823ft 0kts

Navigation Log

Ident Type
Flight plan parsing failed, navigation log unavailable